Ralls, Texas
Current Conditions -  °F | °C
As of 6:53 AM on Wednesday 26 Nov 2014 (Local Time) from KLBB Reporting Station
Scattered Clouds Scattered Clouds  
Wind Chill: 33°   Ceiling: Unl
Heat Index: 41°   Visibility: 10mi
Dew Point: 19°   Wind: 16mph
Humidity: 41%   Direction: 350°N
Pressure: 30.15"   Gusts: NA
Location:  33.67°N, 101.39°W
Report Text: KLBB 261253Z 35014KT 10SM FEW250 SCT300 05/M07 A3015 RMK AO2 SLP200 T00501072
Loading
Personal Weather Stations






























Interactive Weather Map New forecast layout! Learn more

10-Day Weather Forecast

Advertisements
Track Severe Weather on mobile